Time;durP1;ratioP1;P1;durP2;ratioP2;P2;SDS_P1;SDS_P2;PMS_P1;PMS_P2;Temp;Humidity;BMP_temperature;BMP_pressure;BME280_temperature;BME280_humidity;BME280_pressure;Samples;Min_cycle;Max_cycle;Signal;HPM_P1;HPM_P2
2023/04/25 00:00:48;;;;;;;23.88;5.90;;;;;;;;;;5055570;28;20775;-81
2023/04/25 00:03:14;;;;;;;17.75;6.30;;;;;;;;;;5061043;28;20421;-81
2023/04/25 00:05:41;;;;;;;23.65;6.80;;;;;;;;;;5058654;28;20417;-80
2023/04/25 00:08:08;;;;;;;27.75;6.78;;;;;;;;;;5063650;28;20423;-81
2023/04/25 00:10:35;;;;;;;23.10;6.68;;;;;;;;;;5058629;28;20818;-80
2023/04/25 00:13:03;;;;;;;26.52;7.00;;;;;;;;;;5058987;28;20416;-80
2023/04/25 00:15:31;;;;;;;19.40;6.50;;;;;;;;;;5055606;28;20764;-80
2023/04/25 00:17:58;;;;;;;23.15;6.97;;;;;;;;;;5058725;28;20445;-80
2023/04/25 00:20:24;;;;;;;19.63;6.07;;;;;;;;;;5056394;28;20418;-81
2023/04/25 00:22:52;;;;;;;24.63;6.23;;;;;;;;;;5052731;28;20417;-81
2023/04/25 00:25:20;;;;;;;20.65;7.03;;;;;;;;;;5054193;28;20417;-80
2023/04/25 00:27:46;;;;;;;20.05;5.85;;;;;;;;;;5059186;28;20557;-80
2023/04/25 00:30:13;;;;;;;21.17;7.00;;;;;;;;;;5060618;28;20421;-80
2023/04/25 00:32:40;;;;;;;25.73;7.30;;;;;;;;;;5053227;28;20917;-80
2023/04/25 00:35:06;;;;;;;26.70;6.15;;;;;;;;;;5057739;28;20421;-81
2023/04/25 00:37:33;;;;;;;24.55;7.00;;;;;;;;;;5055645;28;20425;-80
2023/04/25 00:39:59;;;;;;;25.10;7.10;;;;;;;;;;5061417;28;20421;-80
2023/04/25 00:42:27;;;;;;;20.95;6.22;;;;;;;;;;5053490;28;20427;-80
2023/04/25 00:44:55;;;;;;;24.75;7.00;;;;;;;;;;5057483;28;20420;-80
2023/04/25 00:47:21;;;;;;;22.45;6.50;;;;;;;;;;5057244;28;20421;-81
2023/04/25 00:49:47;;;;;;;22.40;6.68;;;;;;;;;;5054978;28;20417;-80
2023/04/25 00:52:14;;;;;;;21.92;5.97;;;;;;;;;;5059167;28;20411;-80
2023/04/25 00:54:41;;;;;;;26.42;6.90;;;;;;;;;;5060748;28;20465;-80
2023/04/25 00:57:07;;;;;;;26.33;6.90;;;;;;;;;;5065624;28;20452;-80
2023/04/25 00:59:36;;;;;;;27.40;7.40;;;;;;;;;;5054049;28;20425;-80
2023/04/25 01:02:03;;;;;;;23.50;6.00;;;;;;;;;;5059513;28;20419;-80
2023/04/25 01:04:29;;;;;;;21.27;6.63;;;;;;;;;;5065187;28;20945;-80
2023/04/25 01:06:56;;;;;;;25.88;7.10;;;;;;;;;;5054779;28;20930;-80
2023/04/25 01:09:23;;;;;;;23.57;6.57;;;;;;;;;;5061317;28;20477;-80
2023/04/25 01:11:49;;;;;;;23.93;7.17;;;;;;;;;;5053285;28;20502;-80
2023/04/25 01:14:16;;;;;;;26.95;7.50;;;;;;;;;;5060397;28;20780;-81
2023/04/25 01:16:44;;;;;;;28.55;7.13;;;;;;;;;;5054272;28;20412;-80
2023/04/25 01:19:12;;;;;;;22.07;6.50;;;;;;;;;;5054857;28;20420;-80
2023/04/25 01:21:40;;;;;;;23.50;6.87;;;;;;;;;;5058713;28;20829;-80
2023/04/25 01:24:07;;;;;;;17.05;5.82;;;;;;;;;;5056459;28;20428;-80
2023/04/25 01:26:34;;;;;;;23.13;5.70;;;;;;;;;;5053925;28;20416;-80
2023/04/25 01:29:00;;;;;;;20.52;6.30;;;;;;;;;;5065105;28;20413;-80
2023/04/25 01:31:27;;;;;;;18.00;5.90;;;;;;;;;;5063151;28;20420;-80
2023/04/25 01:33:54;;;;;;;22.92;6.20;;;;;;;;;;5056381;28;20440;-80
2023/04/25 01:36:21;;;;;;;28.23;7.50;;;;;;;;;;5061547;28;20418;-80
2023/04/25 01:38:48;;;;;;;22.17;6.15;;;;;;;;;;5051015;28;20475;-80
2023/04/25 01:41:15;;;;;;;17.05;5.97;;;;;;;;;;5061049;28;20407;-80
2023/04/25 01:43:41;;;;;;;22.83;7.13;;;;;;;;;;5059447;28;20802;-80
2023/04/25 01:46:08;;;;;;;21.63;6.63;;;;;;;;;;5050956;28;20926;-80
2023/04/25 01:48:36;;;;;;;25.60;6.80;;;;;;;;;;5061202;28;20910;-80
2023/04/25 01:51:02;;;;;;;23.85;7.10;;;;;;;;;;5053650;28;20941;-80
2023/04/25 01:53:28;;;;;;;17.83;6.67;;;;;;;;;;5056492;28;20421;-80
2023/04/25 01:55:56;;;;;;;28.10;7.35;;;;;;;;;;5060852;28;20410;-80
2023/04/25 01:58:22;;;;;;;17.60;6.38;;;;;;;;;;5060579;28;20419;-80
2023/04/25 02:00:49;;;;;;;22.48;7.50;;;;;;;;;;5047977;28;20452;-80
2023/04/25 02:03:16;;;;;;;20.55;5.75;;;;;;;;;;5058903;28;20419;-80
2023/04/25 02:05:42;;;;;;;22.30;6.68;;;;;;;;;;5062476;28;20824;-79
2023/04/25 02:08:09;;;;;;;23.48;6.50;;;;;;;;;;5060091;28;20436;-79
2023/04/25 02:10:36;;;;;;;18.58;6.57;;;;;;;;;;5056860;28;20953;-82
2023/04/25 02:13:05;;;;;;;23.40;6.40;;;;;;;;;;5059138;28;20550;-79
2023/04/25 02:15:33;;;;;;;19.10;6.57;;;;;;;;;;5058997;28;20455;-79
2023/04/25 02:18:00;;;;;;;22.08;6.80;;;;;;;;;;5051299;28;20436;-79
2023/04/25 02:20:26;;;;;;;26.33;6.97;;;;;;;;;;5058007;28;20469;-79
2023/04/25 02:22:53;;;;;;;20.42;6.57;;;;;;;;;;5061993;28;20410;-80
2023/04/25 02:25:20;;;;;;;24.27;6.80;;;;;;;;;;5053619;28;20420;-79
2023/04/25 02:27:46;;;;;;;17.87;6.70;;;;;;;;;;5055170;28;20452;-79
2023/04/25 02:30:15;;;;;;;19.65;6.57;;;;;;;;;;5059846;28;20419;-79
2023/04/25 02:32:41;;;;;;;24.48;6.93;;;;;;;;;;5062138;28;20416;-79
2023/04/25 02:35:08;;;;;;;24.40;6.57;;;;;;;;;;5055051;28;20417;-79
2023/04/25 02:37:35;;;;;;;24.55;6.65;;;;;;;;;;5054649;28;20417;-79
2023/04/25 02:40:02;;;;;;;18.52;6.20;;;;;;;;;;5053960;28;20422;-80
2023/04/25 02:42:29;;;;;;;22.63;6.57;;;;;;;;;;5053576;28;20523;-80
2023/04/25 02:44:55;;;;;;;20.58;5.80;;;;;;;;;;5058108;28;20430;-79
2023/04/25 02:47:23;;;;;;;19.73;5.95;;;;;;;;;;5057216;28;20414;-80
2023/04/25 02:49:50;;;;;;;22.10;5.22;;;;;;;;;;5060066;28;20412;-79
2023/04/25 02:52:16;;;;;;;20.50;6.25;;;;;;;;;;5068698;28;20412;-81
2023/04/25 02:54:43;;;;;;;20.65;5.50;;;;;;;;;;5051549;28;20421;-82
2023/04/25 02:57:10;;;;;;;23.23;5.95;;;;;;;;;;5059133;28;20414;-81
2023/04/25 02:59:36;;;;;;;18.98;6.45;;;;;;;;;;5054824;28;20500;-81
2023/04/25 03:02:02;;;;;;;23.33;5.90;;;;;;;;;;5062936;28;20440;-81
2023/04/25 03:04:31;;;;;;;20.80;5.55;;;;;;;;;;5056354;28;20401;-81
2023/04/25 03:06:57;;;;;;;18.80;5.50;;;;;;;;;;5051054;28;20466;-81
2023/04/25 03:09:24;;;;;;;21.40;6.00;;;;;;;;;;5046838;28;20425;-81
2023/04/25 03:11:50;;;;;;;17.88;6.50;;;;;;;;;;5053861;28;20428;-79
2023/04/25 03:14:17;;;;;;;17.27;5.38;;;;;;;;;;5054222;28;20511;-80
2023/04/25 03:16:43;;;;;;;20.92;5.32;;;;;;;;;;5056466;28;20433;-80
2023/04/25 03:19:10;;;;;;;23.95;6.00;;;;;;;;;;5052752;28;20427;-82
2023/04/25 03:21:38;;;;;;;26.08;6.40;;;;;;;;;;5051395;28;20519;-81
2023/04/25 03:24:05;;;;;;;23.48;6.10;;;;;;;;;;5055491;28;20898;-81
2023/04/25 03:26:31;;;;;;;25.00;6.20;;;;;;;;;;5049804;28;20444;-81
2023/04/25 03:28:58;;;;;;;25.48;6.18;;;;;;;;;;5056277;28;20409;-81
2023/04/25 03:31:24;;;;;;;22.13;6.00;;;;;;;;;;5054340;28;20415;-81
2023/04/25 03:33:51;;;;;;;21.35;5.28;;;;;;;;;;5057750;28;20421;-81
2023/04/25 03:36:17;;;;;;;23.35;5.68;;;;;;;;;;5052403;28;20424;-81
2023/04/25 03:38:45;;;;;;;20.27;5.68;;;;;;;;;;5059564;28;20411;-79
2023/04/25 03:41:12;;;;;;;20.42;5.68;;;;;;;;;;5066761;28;20419;-80
2023/04/25 03:43:39;;;;;;;18.67;5.68;;;;;;;;;;5061091;28;20420;-80
2023/04/25 03:46:06;;;;;;;25.80;6.45;;;;;;;;;;5061676;28;20420;-81
2023/04/25 03:48:33;;;;;;;26.65;5.72;;;;;;;;;;5062345;28;20783;-80
2023/04/25 03:50:59;;;;;;;18.40;5.40;;;;;;;;;;5056100;28;20414;-80
2023/04/25 03:53:26;;;;;;;18.90;5.50;;;;;;;;;;5067729;28;21030;-80
2023/04/25 03:55:54;;;;;;;17.73;5.65;;;;;;;;;;5058305;28;20428;-81
2023/04/25 03:58:20;;;;;;;21.98;5.78;;;;;;;;;;5057107;28;20420;-80
2023/04/25 04:00:46;;;;;;;17.15;5.15;;;;;;;;;;5054886;28;20798;-80
2023/04/25 04:03:13;;;;;;;18.65;5.70;;;;;;;;;;5063252;28;20411;-80
2023/04/25 04:05:40;;;;;;;18.63;5.78;;;;;;;;;;5057428;28;21104;-81
2023/04/25 04:08:06;;;;;;;17.70;5.60;;;;;;;;;;5061410;28;20423;-80
2023/04/25 04:10:33;;;;;;;16.05;5.20;;;;;;;;;;5061194;28;20408;-82
2023/04/25 04:13:00;;;;;;;17.73;4.72;;;;;;;;;;5066071;28;20414;-80
2023/04/25 04:15:27;;;;;;;14.52;4.55;;;;;;;;;;5062679;28;20415;-81
2023/04/25 04:17:53;;;;;;;18.70;4.80;;;;;;;;;;5058947;28;20417;-80
2023/04/25 04:20:20;;;;;;;15.90;4.10;;;;;;;;;;5055212;28;20441;-81
2023/04/25 04:22:47;;;;;;;14.77;4.30;;;;;;;;;;5060932;28;20480;-80
2023/04/25 04:25:14;;;;;;;16.77;4.25;;;;;;;;;;5065561;28;20423;-80
2023/04/25 04:27:40;;;;;;;17.70;4.33;;;;;;;;;;5055925;28;20456;-80
2023/04/25 04:30:09;;;;;;;12.73;3.78;;;;;;;;;;5054039;28;20451;-80
2023/04/25 04:32:37;;;;;;;11.50;3.70;;;;;;;;;;5054911;28;20475;-80
2023/04/25 04:35:04;;;;;;;12.88;4.00;;;;;;;;;;5061511;28;20412;-80
2023/04/25 04:37:31;;;;;;;16.00;4.40;;;;;;;;;;5061954;28;20793;-80
2023/04/25 04:39:57;;;;;;;14.98;4.38;;;;;;;;;;5061293;28;20411;-80
2023/04/25 04:42:25;;;;;;;12.82;4.57;;;;;;;;;;5058678;28;20412;-80
2023/04/25 04:44:52;;;;;;;19.17;4.93;;;;;;;;;;5063850;28;20473;-80
2023/04/25 04:47:20;;;;;;;15.50;4.35;;;;;;;;;;5054388;28;20411;-80
2023/04/25 04:49:46;;;;;;;13.68;4.40;;;;;;;;;;5057103;28;20418;-80
2023/04/25 04:52:12;;;;;;;13.73;4.47;;;;;;;;;;5058901;28;20413;-80
2023/04/25 04:54:39;;;;;;;16.13;4.50;;;;;;;;;;5055345;28;20412;-81
2023/04/25 04:57:05;;;;;;;13.32;4.80;;;;;;;;;;5061634;28;20408;-80
2023/04/25 04:59:32;;;;;;;17.13;3.80;;;;;;;;;;5061221;28;20889;-80
2023/04/25 05:01:58;;;;;;;17.25;4.35;;;;;;;;;;5055183;28;20418;-80
2023/04/25 05:04:26;;;;;;;18.75;4.95;;;;;;;;;;5059719;28;20428;-80
2023/04/25 05:06:52;;;;;;;15.65;4.38;;;;;;;;;;5060189;28;20433;-80
2023/04/25 05:09:19;;;;;;;15.90;4.40;;;;;;;;;;5060191;28;20423;-81
2023/04/25 05:11:45;;;;;;;15.77;4.82;;;;;;;;;;5058161;28;20467;-80
2023/04/25 05:14:11;;;;;;;11.10;3.42;;;;;;;;;;5057571;28;20427;-80
2023/04/25 05:16:38;;;;;;;17.02;3.95;;;;;;;;;;5056328;28;20805;-80
2023/04/25 05:19:05;;;;;;;14.93;4.10;;;;;;;;;;5059086;28;20484;-80
2023/04/25 05:21:32;;;;;;;15.55;4.75;;;;;;;;;;5056281;28;20421;-80
2023/04/25 05:23:59;;;;;;;13.60;3.70;;;;;;;;;;5065840;28;20411;-80
2023/04/25 05:26:26;;;;;;;14.13;4.10;;;;;;;;;;5058201;28;21014;-80
2023/04/25 05:28:52;;;;;;;14.48;4.10;;;;;;;;;;5062907;28;20901;-80
2023/04/25 05:31:18;;;;;;;17.52;4.35;;;;;;;;;;5059489;28;20418;-81
2023/04/25 05:33:45;;;;;;;12.00;3.60;;;;;;;;;;5060518;28;20434;-81
2023/04/25 05:36:11;;;;;;;11.13;4.10;;;;;;;;;;5056056;28;20416;-79
2023/04/25 05:38:42;;;;;;;14.70;3.70;;;;;;;;;;5063605;28;20426;-81
2023/04/25 05:41:09;;;;;;;12.02;3.95;;;;;;;;;;5063780;28;20418;-79
2023/04/25 05:43:35;;;;;;;13.10;4.00;;;;;;;;;;5055265;28;20428;-81
2023/04/25 05:46:02;;;;;;;15.00;4.72;;;;;;;;;;5060861;28;20416;-81
2023/04/25 05:48:28;;;;;;;16.85;4.50;;;;;;;;;;5049578;28;20996;-81
2023/04/25 05:50:55;;;;;;;18.60;3.50;;;;;;;;;;5056242;28;20928;-81
2023/04/25 05:53:21;;;;;;;13.23;3.50;;;;;;;;;;5052341;28;20429;-79
2023/04/25 05:55:49;;;;;;;17.13;3.92;;;;;;;;;;5054093;28;20947;-79
2023/04/25 05:58:15;;;;;;;15.13;4.23;;;;;;;;;;5055292;28;20436;-80
2023/04/25 06:00:42;;;;;;;12.55;3.58;;;;;;;;;;5057111;28;20434;-81
2023/04/25 06:03:09;;;;;;;11.20;4.00;;;;;;;;;;5057907;28;20421;-81
2023/04/25 06:05:36;;;;;;;15.60;3.88;;;;;;;;;;5051402;28;20794;-81
2023/04/25 06:08:02;;;;;;;13.05;3.50;;;;;;;;;;5058491;28;20417;-81
2023/04/25 06:10:28;;;;;;;13.98;4.20;;;;;;;;;;5058879;28;20421;-81
2023/04/25 06:12:56;;;;;;;10.88;3.28;;;;;;;;;;5052359;28;20437;-81
2023/04/25 06:15:22;;;;;;;14.93;4.30;;;;;;;;;;5053748;28;20423;-79
2023/04/25 06:17:49;;;;;;;7.68;3.03;;;;;;;;;;5054305;28;20425;-79
2023/04/25 06:20:15;;;;;;;12.00;3.40;;;;;;;;;;5053880;28;20477;-79
2023/04/25 06:22:42;;;;;;;13.98;3.25;;;;;;;;;;5051552;28;20409;-80
2023/04/25 06:25:08;;;;;;;12.70;3.67;;;;;;;;;;5041515;28;20413;-80
2023/04/25 06:27:35;;;;;;;16.52;3.90;;;;;;;;;;5047158;28;21023;-81
2023/04/25 06:30:04;;;;;;;11.75;3.50;;;;;;;;;;5046847;28;20426;-81
2023/04/25 06:32:30;;;;;;;9.68;3.50;;;;;;;;;;5044152;28;20421;-81
2023/04/25 06:34:57;;;;;;;12.68;3.25;;;;;;;;;;5051004;28;20980;-80
2023/04/25 06:37:24;;;;;;;11.27;3.10;;;;;;;;;;5049136;28;20425;-80
2023/04/25 06:39:50;;;;;;;12.48;3.50;;;;;;;;;;5049258;28;21024;-80
2023/04/25 06:42:17;;;;;;;10.73;3.03;;;;;;;;;;5049661;28;20433;-80
2023/04/25 06:44:43;;;;;;;12.68;3.20;;;;;;;;;;5046845;28;20793;-81
2023/04/25 06:47:11;;;;;;;14.50;3.42;;;;;;;;;;5047477;28;20916;-80
2023/04/25 06:49:37;;;;;;;17.73;4.20;;;;;;;;;;5051013;28;20426;-80
2023/04/25 06:52:05;;;;;;;11.43;3.70;;;;;;;;;;5050360;28;20976;-80
2023/04/25 06:54:31;;;;;;;15.73;4.10;;;;;;;;;;5048752;28;20413;-80
2023/04/25 06:56:58;;;;;;;17.20;4.18;;;;;;;;;;5046343;28;20428;-81
2023/04/25 06:59:24;;;;;;;12.77;3.60;;;;;;;;;;5050827;28;20412;-80
2023/04/25 07:01:50;;;;;;;11.55;3.70;;;;;;;;;;5049853;28;20417;-80
2023/04/25 07:04:18;;;;;;;12.10;3.20;;;;;;;;;;5051268;28;20409;-79
2023/04/25 07:06:46;;;;;;;7.95;2.83;;;;;;;;;;5050607;28;20945;-80
2023/04/25 07:09:13;;;;;;;10.57;3.72;;;;;;;;;;5046853;28;20938;-80
2023/04/25 07:11:39;;;;;;;13.02;3.10;;;;;;;;;;5050698;28;20409;-80
2023/04/25 07:14:06;;;;;;;10.05;2.90;;;;;;;;;;5050073;28;20428;-80
2023/04/25 07:16:32;;;;;;;11.57;2.85;;;;;;;;;;5049943;28;20406;-80
2023/04/25 07:18:59;;;;;;;10.17;3.40;;;;;;;;;;5050741;28;20420;-80
2023/04/25 07:21:27;;;;;;;12.80;3.15;;;;;;;;;;5051629;28;20413;-80
2023/04/25 07:23:53;;;;;;;9.70;2.90;;;;;;;;;;5046226;28;20423;-81
2023/04/25 07:26:20;;;;;;;10.55;2.80;;;;;;;;;;5050332;28;20425;-80
2023/04/25 07:28:49;;;;;;;10.55;2.83;;;;;;;;;;5051068;28;20417;-80
2023/04/25 07:31:17;;;;;;;10.82;2.67;;;;;;;;;;5048759;28;20415;-80
2023/04/25 07:33:43;;;;;;;11.18;2.80;;;;;;;;;;5052354;28;20826;-80
2023/04/25 07:36:09;;;;;;;14.07;3.40;;;;;;;;;;5050708;28;20414;-81
2023/04/25 07:38:37;;;;;;;6.88;2.80;;;;;;;;;;5050673;28;20417;-80
2023/04/25 07:41:03;;;;;;;13.13;3.30;;;;;;;;;;5050340;28;20417;-80
2023/04/25 07:43:30;;;;;;;11.60;2.92;;;;;;;;;;5051060;28;20455;-80
2023/04/25 07:45:57;;;;;;;9.88;2.92;;;;;;;;;;5048910;28;20421;-80
2023/04/25 07:48:23;;;;;;;5.95;2.70;;;;;;;;;;5051029;28;20416;-80
2023/04/25 07:50:50;;;;;;;10.60;2.88;;;;;;;;;;5050025;28;20525;-80
2023/04/25 07:53:17;;;;;;;8.38;2.42;;;;;;;;;;5063432;28;20471;-80
2023/04/25 07:55:45;;;;;;;6.78;2.33;;;;;;;;;;5050277;28;20492;-80
2023/04/25 07:58:12;;;;;;;12.27;3.00;;;;;;;;;;5048735;28;20413;-80
2023/04/25 08:00:38;;;;;;;7.93;2.53;;;;;;;;;;5050312;28;20413;-80
2023/04/25 08:03:06;;;;;;;11.93;3.20;;;;;;;;;;5045084;28;20477;-81
2023/04/25 08:05:32;;;;;;;11.45;2.83;;;;;;;;;;5050210;28;20424;-80
2023/04/25 08:07:59;;;;;;;10.13;3.30;;;;;;;;;;5047155;28;20932;-80
2023/04/25 08:10:25;;;;;;;13.73;2.95;;;;;;;;;;5050524;28;20752;-80
2023/04/25 08:12:53;;;;;;;11.15;2.70;;;;;;;;;;5051063;28;20420;-80
2023/04/25 08:15:20;;;;;;;9.20;3.13;;;;;;;;;;5048880;28;20413;-80
2023/04/25 08:17:46;;;;;;;12.77;2.92;;;;;;;;;;5049855;28;20413;-80
2023/04/25 08:20:14;;;;;;;10.57;3.30;;;;;;;;;;5049357;28;20409;-80
2023/04/25 08:22:41;;;;;;;13.02;2.80;;;;;;;;;;5050196;28;20426;-80
2023/04/25 08:25:08;;;;;;;11.82;2.90;;;;;;;;;;5053838;28;20413;-80
2023/04/25 08:27:35;;;;;;;10.45;2.75;;;;;;;;;;5051548;28;20425;-81
2023/04/25 08:30:03;;;;;;;11.13;3.10;;;;;;;;;;5053500;28;21060;-80
2023/04/25 08:32:30;;;;;;;7.57;1.90;;;;;;;;;;5051216;28;20417;-81
2023/04/25 08:34:56;;;;;;;5.88;2.20;;;;;;;;;;5051624;28;20421;-80
2023/04/25 08:37:23;;;;;;;9.45;2.00;;;;;;;;;;5053867;28;20449;-80
2023/04/25 08:39:52;;;;;;;8.10;2.60;;;;;;;;;;5053449;28;20417;-80
2023/04/25 08:42:18;;;;;;;13.75;2.30;;;;;;;;;;5054165;28;20422;-81
2023/04/25 08:44:45;;;;;;;7.65;2.50;;;;;;;;;;5052956;28;20902;-80
2023/04/25 08:47:13;;;;;;;5.07;1.93;;;;;;;;;;5051619;28;20433;-80
2023/04/25 08:49:40;;;;;;;6.18;2.00;;;;;;;;;;5052685;28;20905;-80
2023/04/25 08:52:10;;;;;;;9.82;2.35;;;;;;;;;;5052401;28;20425;-79
2023/04/25 08:54:37;;;;;;;4.15;1.65;;;;;;;;;;5050479;28;20421;-79
2023/04/25 08:57:05;;;;;;;6.82;1.77;;;;;;;;;;5048647;28;20790;-79
2023/04/25 08:59:31;;;;;;;8.95;2.50;;;;;;;;;;5052975;28;20441;-79
2023/04/25 09:01:58;;;;;;;10.68;2.42;;;;;;;;;;5044504;28;20488;-79
2023/04/25 09:04:26;;;;;;;9.95;2.72;;;;;;;;;;5055235;28;20902;-81
2023/04/25 09:06:52;;;;;;;13.18;2.65;;;;;;;;;;5053040;28;20518;-80
2023/04/25 09:09:19;;;;;;;9.05;2.25;;;;;;;;;;5053020;28;20410;-81
2023/04/25 09:11:45;;;;;;;4.97;1.90;;;;;;;;;;5052391;28;20415;-81
2023/04/25 09:14:12;;;;;;;8.77;3.00;;;;;;;;;;5052656;28;20922;-80
2023/04/25 09:16:54;;;;;;;7.88;1.90;;;;;;;;;;5053156;28;20460;-81
2023/04/25 09:19:22;;;;;;;7.82;2.50;;;;;;;;;;5053162;28;20421;-80
2023/04/25 09:21:51;;;;;;;7.72;1.95;;;;;;;;;;5053057;28;20843;-81
2023/04/25 09:24:20;;;;;;;9.13;2.33;;;;;;;;;;5056063;28;20416;-81
2023/04/25 09:26:47;;;;;;;7.75;2.50;;;;;;;;;;5049711;28;20440;-81
2023/04/25 09:29:14;;;;;;;8.40;1.70;;;;;;;;;;5043569;28;20564;-80
2023/04/25 09:31:40;;;;;;;6.10;1.77;;;;;;;;;;5053281;28;20417;-81
2023/04/25 09:34:06;;;;;;;7.28;2.03;;;;;;;;;;5052233;28;20403;-79
2023/04/25 09:36:35;;;;;;;5.80;1.85;;;;;;;;;;5050784;28;20504;-81
2023/04/25 09:39:03;;;;;;;4.07;2.30;;;;;;;;;;5038547;28;20434;-78
2023/04/25 09:41:32;;;;;;;4.05;1.90;;;;;;;;;;5044906;28;20481;-78
2023/04/25 09:43:59;;;;;;;4.87;1.80;;;;;;;;;;5051931;28;20449;-78
2023/04/25 09:46:25;;;;;;;8.70;2.22;;;;;;;;;;5053002;28;20451;-76
2023/04/25 09:48:53;;;;;;;8.60;1.73;;;;;;;;;;5052965;28;20433;-77
2023/04/25 09:51:20;;;;;;;6.50;1.80;;;;;;;;;;5051045;28;20425;-78
2023/04/25 09:53:50;;;;;;;5.57;1.97;;;;;;;;;;5051756;28;21333;-79
2023/04/25 09:56:19;;;;;;;6.78;1.60;;;;;;;;;;5052304;28;20775;-80
2023/04/25 09:58:47;;;;;;;4.95;1.70;;;;;;;;;;5046972;28;20411;-80
2023/04/25 10:01:14;;;;;;;5.70;1.40;;;;;;;;;;5051756;28;20414;-78
2023/04/25 10:03:41;;;;;;;9.10;1.92;;;;;;;;;;5051394;28;20949;-80
2023/04/25 10:06:08;;;;;;;4.20;1.77;;;;;;;;;;5050597;28;20419;-78
2023/04/25 10:08:37;;;;;;;6.65;1.80;;;;;;;;;;5052465;28;20432;-79
2023/04/25 10:11:04;;;;;;;6.32;2.00;;;;;;;;;;5051298;28;20444;-80
2023/04/25 10:13:32;;;;;;;6.73;1.80;;;;;;;;;;5046480;28;20430;-79
2023/04/25 10:16:00;;;;;;;6.30;2.00;;;;;;;;;;5047861;28;20803;-80
2023/04/25 10:18:27;;;;;;;10.05;2.20;;;;;;;;;;5049149;28;20437;-80
2023/04/25 10:20:54;;;;;;;3.35;1.83;;;;;;;;;;5044083;28;20463;-80
2023/04/25 10:23:21;;;;;;;7.25;2.17;;;;;;;;;;5050916;28;20425;-80
2023/04/25 10:25:48;;;;;;;7.30;2.10;;;;;;;;;;5047695;28;20476;-80
2023/04/25 10:28:14;;;;;;;7.85;2.00;;;;;;;;;;5052050;28;20425;-79
2023/04/25 10:30:57;;;;;;;8.32;1.70;;;;;;;;;;5050994;28;20428;-79
2023/04/25 10:33:30;;;;;;;8.02;1.70;;;;;;;;;;5049312;28;20417;-79
2023/04/25 10:35:58;;;;;;;6.90;1.70;;;;;;;;;;5050548;28;20425;-79
2023/04/25 10:38:26;;;;;;;11.05;1.90;;;;;;;;;;5048609;28;20429;-78
2023/04/25 10:41:03;;;;;;;4.68;1.80;;;;;;;;;;5045906;28;20448;-80
2023/04/25 10:43:35;;;;;;;8.15;1.65;;;;;;;;;;5051594;28;20417;-78
2023/04/25 10:46:03;;;;;;;4.80;2.20;;;;;;;;;;5050661;28;20502;-80
2023/04/25 10:48:30;;;;;;;8.60;1.83;;;;;;;;;;5051148;28;20428;-80
2023/04/25 10:51:08;;;;;;;8.65;2.13;;;;;;;;;;5046622;28;20421;-80
2023/04/25 10:53:34;;;;;;;8.90;2.00;;;;;;;;;;5050720;28;20425;-80
2023/04/25 10:56:00;;;;;;;9.30;2.67;;;;;;;;;;5050205;28;20915;-79
2023/04/25 10:58:27;;;;;;;4.82;1.70;;;;;;;;;;5050068;28;20787;-79
2023/04/25 11:00:53;;;;;;;7.70;1.90;;;;;;;;;;5050042;28;20421;-79
2023/04/25 11:03:22;;;;;;;8.32;2.45;;;;;;;;;;5051736;28;20435;-79
2023/04/25 11:05:50;;;;;;;8.65;2.53;;;;;;;;;;5050420;28;20425;-77
2023/04/25 11:08:21;;;;;;;9.38;2.50;;;;;;;;;;5049787;28;20477;-80
2023/04/25 11:10:48;;;;;;;11.15;2.25;;;;;;;;;;5045301;28;20425;-80
2023/04/25 11:13:14;;;;;;;8.73;2.00;;;;;;;;;;5050597;28;20444;-77
2023/04/25 11:15:40;;;;;;;8.18;2.08;;;;;;;;;;5044611;28;20934;-78
2023/04/25 11:18:07;;;;;;;9.13;2.38;;;;;;;;;;5050798;28;20432;-78
2023/04/25 11:20:35;;;;;;;7.38;1.90;;;;;;;;;;5048470;28;20425;-80
2023/04/25 11:23:01;;;;;;;6.78;1.80;;;;;;;;;;5051257;28;20436;-78
2023/04/25 11:25:29;;;;;;;6.80;2.08;;;;;;;;;;5049636;28;20429;-76
2023/04/25 11:27:57;;;;;;;7.22;2.00;;;;;;;;;;5050101;28;20429;-78
2023/04/25 11:30:24;;;;;;;6.57;1.90;;;;;;;;;;5048394;28;20493;-79
2023/04/25 11:32:51;;;;;;;7.57;1.80;;;;;;;;;;5050616;28;20433;-81
2023/04/25 11:35:18;;;;;;;5.25;1.90;;;;;;;;;;5048724;28;20452;-81
2023/04/25 11:37:46;;;;;;;6.67;2.50;;;;;;;;;;5049783;28;20427;-80
2023/04/25 11:40:12;;;;;;;8.27;2.50;;;;;;;;;;5049170;28;20799;-79
2023/04/25 11:42:40;;;;;;;8.68;2.60;;;;;;;;;;5050926;28;20906;-81
2023/04/25 11:45:07;;;;;;;3.35;1.40;;;;;;;;;;5044463;28;20421;-81
2023/04/25 11:47:34;;;;;;;6.05;1.88;;;;;;;;;;5050500;28;20457;-80
2023/04/25 11:50:01;;;;;;;9.10;1.87;;;;;;;;;;5050398;28;20413;-81
2023/04/25 11:52:36;;;;;;;3.67;1.37;;;;;;;;;;5048889;28;20509;-80
2023/04/25 11:55:05;;;;;;;3.00;1.20;;;;;;;;;;5050454;28;20772;-81
2023/04/25 11:57:32;;;;;;;5.03;1.52;;;;;;;;;;5050651;28;20814;-81
2023/04/25 12:00:05;;;;;;;6.32;1.80;;;;;;;;;;5053076;28;20417;-81
2023/04/25 12:02:32;;;;;;;6.90;2.05;;;;;;;;;;5053335;28;20926;-81
2023/04/25 12:05:00;;;;;;;3.97;1.50;;;;;;;;;;5051382;28;20923;-80
2023/04/25 12:07:30;;;;;;;6.70;1.63;;;;;;;;;;5054428;28;20437;-81
2023/04/25 12:09:56;;;;;;;4.60;1.40;;;;;;;;;;5051932;28;20429;-79
2023/04/25 12:12:27;;;;;;;6.90;1.80;;;;;;;;;;5054485;28;20514;-79
2023/04/25 12:14:55;;;;;;;5.55;1.60;;;;;;;;;;5053055;28;20430;-79
2023/04/25 12:17:21;;;;;;;8.43;1.85;;;;;;;;;;5052370;28;20425;-80
2023/04/25 12:19:49;;;;;;;5.15;1.70;;;;;;;;;;5053932;28;20997;-79
2023/04/25 12:22:22;;;;;;;6.63;2.10;;;;;;;;;;5053385;28;20421;-78
2023/04/25 12:24:49;;;;;;;9.35;2.17;;;;;;;;;;5051569;28;20439;-80
2023/04/25 12:27:18;;;;;;;6.20;1.52;;;;;;;;;;5053771;28;20436;-81
2023/04/25 12:29:52;;;;;;;5.50;2.00;;;;;;;;;;5050038;28;20520;-79
2023/04/25 12:32:18;;;;;;;5.37;2.10;;;;;;;;;;5053581;28;20922;-81
2023/04/25 12:34:45;;;;;;;8.52;2.00;;;;;;;;;;5052484;28;20417;-80
2023/04/25 12:37:12;;;;;;;8.88;1.95;;;;;;;;;;5047527;28;20971;-80
2023/04/25 12:39:38;;;;;;;10.18;2.05;;;;;;;;;;5052665;28;20425;-80
2023/04/25 12:42:07;;;;;;;5.15;1.98;;;;;;;;;;5054497;28;20432;-81
2023/04/25 12:44:34;;;;;;;9.32;2.00;;;;;;;;;;5053716;28;20933;-80
2023/04/25 12:47:02;;;;;;;5.03;1.90;;;;;;;;;;5053865;28;20413;-81
2023/04/25 12:49:29;;;;;;;4.68;2.10;;;;;;;;;;5053365;28;20419;-81
2023/04/25 12:51:55;;;;;;;5.25;1.80;;;;;;;;;;5054218;28;20409;-81
2023/04/25 12:54:21;;;;;;;5.15;1.70;;;;;;;;;;5053291;28;20413;-81
2023/04/25 12:56:48;;;;;;;4.82;1.80;;;;;;;;;;5054125;28;20440;-80
2023/04/25 12:59:15;;;;;;;6.75;2.13;;;;;;;;;;5053295;28;20535;-81
2023/04/25 13:01:42;;;;;;;6.40;1.90;;;;;;;;;;5051637;28;20413;-80
2023/04/25 13:04:10;;;;;;;8.02;2.10;;;;;;;;;;5051246;28;20488;-80
2023/04/25 13:06:36;;;;;;;7.72;2.22;;;;;;;;;;5051617;28;20895;-80
2023/04/25 13:09:04;;;;;;;7.50;2.80;;;;;;;;;;5052544;28;20426;-80
2023/04/25 13:11:31;;;;;;;9.25;2.53;;;;;;;;;;5052215;28;20421;-80
2023/04/25 13:13:57;;;;;;;6.10;1.90;;;;;;;;;;5053137;28;20416;-80
2023/04/25 13:16:23;;;;;;;9.50;2.20;;;;;;;;;;5047860;28;20774;-81
2023/04/25 13:18:50;;;;;;;4.95;1.75;;;;;;;;;;5051126;28;20526;-79
2023/04/25 13:21:17;;;;;;;4.70;1.60;;;;;;;;;;5052974;28;20922;-80
2023/04/25 13:23:46;;;;;;;7.07;2.03;;;;;;;;;;5053387;28;20420;-80
2023/04/25 13:26:12;;;;;;;6.53;2.20;;;;;;;;;;5052715;28;20963;-81
2023/04/25 13:28:40;;;;;;;4.57;1.60;;;;;;;;;;5053331;28;20429;-81
2023/04/25 13:31:06;;;;;;;3.95;1.73;;;;;;;;;;5051534;28;20417;-81
2023/04/25 13:33:33;;;;;;;5.77;1.80;;;;;;;;;;5052842;28;20514;-81
2023/04/25 13:35:59;;;;;;;5.55;2.15;;;;;;;;;;5049322;28;20425;-79
2023/04/25 13:38:27;;;;;;;5.55;1.67;;;;;;;;;;5051541;28;20401;-81
2023/04/25 13:40:53;;;;;;;6.00;1.77;;;;;;;;;;5052699;28;20429;-81
2023/04/25 13:43:20;;;;;;;7.68;1.80;;;;;;;;;;5076550;22;20437;-82
2023/04/25 13:45:47;;;;;;;3.50;1.67;;;;;;;;;;5039979;28;20421;-81
2023/04/25 13:48:13;;;;;;;4.63;1.90;;;;;;;;;;5054071;28;20438;-81
2023/04/25 13:50:39;;;;;;;7.75;1.80;;;;;;;;;;5052141;28;20422;-82
2023/04/25 13:53:07;;;;;;;6.90;1.90;;;;;;;;;;5052209;28;20780;-82
2023/04/25 13:55:36;;;;;;;3.70;1.73;;;;;;;;;;5047901;28;20997;-81
2023/04/25 13:58:07;;;;;;;6.80;1.50;;;;;;;;;;5042559;28;20447;-81
2023/04/25 14:00:33;;;;;;;4.88;1.40;;;;;;;;;;5052091;28;20409;-82
2023/04/25 14:03:00;;;;;;;4.20;1.63;;;;;;;;;;5047897;28;20433;-80
2023/04/25 14:05:27;;;;;;;6.95;1.55;;;;;;;;;;5045766;28;20429;-81
2023/04/25 14:07:53;;;;;;;5.00;1.85;;;;;;;;;;5049669;28;20421;-81
2023/04/25 14:10:20;;;;;;;5.00;1.80;;;;;;;;;;5046038;28;20425;-81
2023/04/25 14:12:48;;;;;;;10.05;2.70;;;;;;;;;;5050004;28;20445;-81
2023/04/25 14:15:15;;;;;;;4.13;1.70;;;;;;;;;;5051680;28;20419;-81
2023/04/25 14:17:41;;;;;;;4.93;1.80;;;;;;;;;;5051013;28;20417;-80
2023/04/25 14:20:10;;;;;;;4.95;1.55;;;;;;;;;;5048181;28;20773;-81
2023/04/25 14:22:41;;;;;;;7.07;1.50;;;;;;;;;;5043242;28;20417;-81
2023/04/25 14:25:07;;;;;;;2.60;1.30;;;;;;;;;;5045378;28;20425;-81
2023/04/25 14:27:34;;;;;;;7.50;1.70;;;;;;;;;;5047233;28;20413;-81
2023/04/25 14:30:01;;;;;;;6.60;1.77;;;;;;;;;;5044391;28;20437;-81
2023/04/25 14:32:28;;;;;;;6.47;2.08;;;;;;;;;;5050182;28;20425;-81
2023/04/25 14:34:54;;;;;;;5.22;1.60;;;;;;;;;;5051952;28;20401;-81